Ainsworth, NE

1:04 PM CST on March 02, 2015 (GMT -0600)
Ainsworth Municipal | Change Station
CLOSE
Current Station
Airport
Location: Ainsworth,
Elevation: 2589 ft
Nearby Weather Stations

Elev 2589 ft 42.58 °N, 99.99 °W | Updated 9 minutes ago

Overcast
Overcast
38 °F
Feels Like 27 °F
N
23
Wind Variable Wind from South
Gusts 37 mph

Today
High -- | Low -- °F
--% Chance of Precip.
Yesterday
High -- | Low -- °F
Precip. -- in
7:14 AM 6:30 PM
Waxing Gibbous, 92% visible
Pressure 30.04 in
Visibility 10.0 miles
Clouds Overcast 5500 ft
Windchill 27 °F
Dew Point 14 °F
Humidity 37%
Rainfall 0.00 in
Snow Depth Not available.
UV 2 out of 12
Pollen 2.40 out of 12
Air Quality Not available.
Flu Activity Not available.
METAR KANW 021855Z AUTO 18020G32KT 10SM OVC055 03/M10 A3004 RMK AO2 T00341100

More Conditions Fewer Conditions

Pressure 30.04 in
Visibility 10.0 miles
Clouds Overcast 5500 ft
Windchill 27 °F
Dew Point 14 °F
Humidity 37%
Rainfall 0.00 in
Snow Depth Not available.
UV 2 out of 12
Pollen 2.40 out of 12
Air Quality Not available.
Flu Activity Not available.
METAR KANW 021855Z AUTO 18020G32KT 10SM OVC055 03/M10 A3004 RMK AO2 T00341100

More Conditions Fewer Conditions

10-Day Weather Forecast

Almanac

Astronomy

Mar. 02, 2015 Rise Set
Actual Time
Civil Twilight
Nautical Twilight
Astronomical Twilight
Moon
Length of Visible Light
Length of Day
Tomorrow will be .
, % of the Moon is Illuminated

Today's Extremes

State Highs State Lows

Community

WunderPhotos

Upload Photos

1,801,913 photos uploaded!

WunderBlogs® & News

Nearby

Air Quality

  Air Quality AQ Index Pollutant
Not available.

Snow Depth

Station Depth Elevation

Earthquake Activity

City Distance Mag. Time & Date
Minimum magnitude displayed is 2.5.

Coastal Water Temperatures

Place Temperature

Nearby Weather Stations